sensor_id;sensor_type;location;lat;lon;timestamp;temperature;humidity
54431;DHT22;40342;52.998;5.862;2023-07-16T00:00:07;16.50;99.90
54431;DHT22;40342;52.998;5.862;2023-07-16T00:02:35;16.40;99.90
54431;DHT22;40342;52.998;5.862;2023-07-16T00:05:01;16.30;99.90
54431;DHT22;40342;52.998;5.862;2023-07-16T00:07:27;16.20;99.90
54431;DHT22;40342;52.998;5.862;2023-07-16T00:09:52;16.20;99.90
54431;DHT22;40342;52.998;5.862;2023-07-16T00:12:18;16.20;99.90
54431;DHT22;40342;52.998;5.862;2023-07-16T00:14:43;16.20;99.90
54431;DHT22;40342;52.998;5.862;2023-07-16T00:17:09;16.10;99.90
54431;DHT22;40342;52.998;5.862;2023-07-16T00:19:34;16.10;99.90
54431;DHT22;40342;52.998;5.862;2023-07-16T00:22:00;16.20;99.90
54431;DHT22;40342;52.998;5.862;2023-07-16T00:24:25;16.10;99.90
54431;DHT22;40342;52.998;5.862;2023-07-16T00:26:52;16.20;99.90
54431;DHT22;40342;52.998;5.862;2023-07-16T00:29:18;16.20;99.90
54431;DHT22;40342;52.998;5.862;2023-07-16T00:31:43;16.10;99.90
54431;DHT22;40342;52.998;5.862;2023-07-16T00:34:09;16.10;99.90
54431;DHT22;40342;52.998;5.862;2023-07-16T00:36:34;16.10;99.90
54431;DHT22;40342;52.998;5.862;2023-07-16T00:39:00;16.10;99.90
54431;DHT22;40342;52.998;5.862;2023-07-16T00:41:25;16.10;99.90
54431;DHT22;40342;52.998;5.862;2023-07-16T00:43:51;16.10;99.90
54431;DHT22;40342;52.998;5.862;2023-07-16T00:46:17;16.10;99.90
54431;DHT22;40342;52.998;5.862;2023-07-16T00:48:43;16.10;99.90
54431;DHT22;40342;52.998;5.862;2023-07-16T00:51:09;16.10;99.90
54431;DHT22;40342;52.998;5.862;2023-07-16T00:53:35;16.10;99.90
54431;DHT22;40342;52.998;5.862;2023-07-16T00:56:00;16.20;99.90
54431;DHT22;40342;52.998;5.862;2023-07-16T00:58:26;16.20;99.90
54431;DHT22;40342;52.998;5.862;2023-07-16T01:00:52;16.20;99.90
54431;DHT22;40342;52.998;5.862;2023-07-16T01:03:18;16.20;99.90
54431;DHT22;40342;52.998;5.862;2023-07-16T01:08:13;16.20;99.90
54431;DHT22;40342;52.998;5.862;2023-07-16T01:10:41;16.20;99.90
54431;DHT22;40342;52.998;5.862;2023-07-16T01:13:07;16.20;99.90
54431;DHT22;40342;52.998;5.862;2023-07-16T01:15:33;16.20;99.90
54431;DHT22;40342;52.998;5.862;2023-07-16T01:17:58;16.30;99.90
54431;DHT22;40342;52.998;5.862;2023-07-16T01:20:24;16.30;99.90
54431;DHT22;40342;52.998;5.862;2023-07-16T01:26:29;16.30;99.90
54431;DHT22;40342;52.998;5.862;2023-07-16T01:31:40;16.20;99.90
54431;DHT22;40342;52.998;5.862;2023-07-16T01:34:06;16.20;99.90
54431;DHT22;40342;52.998;5.862;2023-07-16T01:36:33;16.10;99.90
54431;DHT22;40342;52.998;5.862;2023-07-16T01:38:59;16.20;99.90
54431;DHT22;40342;52.998;5.862;2023-07-16T01:41:25;16.20;99.90
54431;DHT22;40342;52.998;5.862;2023-07-16T01:43:50;16.10;99.90
54431;DHT22;40342;52.998;5.862;2023-07-16T01:46:17;16.10;99.90
54431;DHT22;40342;52.998;5.862;2023-07-16T01:48:43;16.10;99.90
54431;DHT22;40342;52.998;5.862;2023-07-16T01:51:08;16.20;99.90
54431;DHT22;40342;52.998;5.862;2023-07-16T01:53:34;16.20;99.90
54431;DHT22;40342;52.998;5.862;2023-07-16T01:56:03;16.10;99.90
54431;DHT22;40342;52.998;5.862;2023-07-16T01:58:28;16.10;99.90
54431;DHT22;40342;52.998;5.862;2023-07-16T02:00:54;16.10;99.90
54431;DHT22;40342;52.998;5.862;2023-07-16T02:03:19;16.10;99.90
54431;DHT22;40342;52.998;5.862;2023-07-16T02:05:45;16.10;99.90
54431;DHT22;40342;52.998;5.862;2023-07-16T02:08:11;16.10;99.90
54431;DHT22;40342;52.998;5.862;2023-07-16T02:10:36;16.10;99.90
54431;DHT22;40342;52.998;5.862;2023-07-16T02:13:02;16.10;99.90
54431;DHT22;40342;52.998;5.862;2023-07-16T02:15:27;16.10;99.90
54431;DHT22;40342;52.998;5.862;2023-07-16T02:17:53;16.10;99.90
54431;DHT22;40342;52.998;5.862;2023-07-16T02:20:18;16.10;99.90
54431;DHT22;40342;52.998;5.862;2023-07-16T02:22:44;16.20;99.90
54431;DHT22;40342;52.998;5.862;2023-07-16T02:25:10;16.10;99.90
54431;DHT22;40342;52.998;5.862;2023-07-16T02:27:35;16.20;99.90
54431;DHT22;40342;52.998;5.862;2023-07-16T02:30:01;16.20;99.90
54431;DHT22;40342;52.998;5.862;2023-07-16T02:32:26;16.20;99.90
54431;DHT22;40342;52.998;5.862;2023-07-16T02:34:52;16.20;99.90
54431;DHT22;40342;52.998;5.862;2023-07-16T02:37:17;16.20;99.90
54431;DHT22;40342;52.998;5.862;2023-07-16T02:39:44;16.10;99.90
54431;DHT22;40342;52.998;5.862;2023-07-16T02:42:10;16.10;99.90
54431;DHT22;40342;52.998;5.862;2023-07-16T02:44:36;16.10;99.90
54431;DHT22;40342;52.998;5.862;2023-07-16T02:47:08;16.10;99.90
54431;DHT22;40342;52.998;5.862;2023-07-16T02:49:34;16.10;99.90
54431;DHT22;40342;52.998;5.862;2023-07-16T02:51:59;16.10;99.90
54431;DHT22;40342;52.998;5.862;2023-07-16T02:54:25;16.10;99.90
54431;DHT22;40342;52.998;5.862;2023-07-16T02:56:50;16.10;99.90
54431;DHT22;40342;52.998;5.862;2023-07-16T02:59:16;16.10;99.90
54431;DHT22;40342;52.998;5.862;2023-07-16T03:01:41;16.10;99.90
54431;DHT22;40342;52.998;5.862;2023-07-16T03:04:07;16.10;99.90
54431;DHT22;40342;52.998;5.862;2023-07-16T03:06:33;16.20;99.90
54431;DHT22;40342;52.998;5.862;2023-07-16T03:08:58;16.10;99.90
54431;DHT22;40342;52.998;5.862;2023-07-16T03:11:24;16.20;99.90
54431;DHT22;40342;52.998;5.862;2023-07-16T03:13:49;16.20;99.90
54431;DHT22;40342;52.998;5.862;2023-07-16T03:16:15;16.20;99.90
54431;DHT22;40342;52.998;5.862;2023-07-16T03:18:40;16.20;99.90
54431;DHT22;40342;52.998;5.862;2023-07-16T03:21:06;16.20;99.90
54431;DHT22;40342;52.998;5.862;2023-07-16T03:23:31;16.20;99.90
54431;DHT22;40342;52.998;5.862;2023-07-16T03:25:57;16.20;99.90
54431;DHT22;40342;52.998;5.862;2023-07-16T03:28:23;16.20;99.90
54431;DHT22;40342;52.998;5.862;2023-07-16T03:30:49;16.20;99.90
54431;DHT22;40342;52.998;5.862;2023-07-16T03:33:16;16.20;99.90
54431;DHT22;40342;52.998;5.862;2023-07-16T03:35:45;16.20;99.90
54431;DHT22;40342;52.998;5.862;2023-07-16T03:38:12;16.30;99.90
54431;DHT22;40342;52.998;5.862;2023-07-16T03:40:38;16.20;99.90
54431;DHT22;40342;52.998;5.862;2023-07-16T03:43:04;16.30;99.90
54431;DHT22;40342;52.998;5.862;2023-07-16T03:45:29;16.30;99.90
54431;DHT22;40342;52.998;5.862;2023-07-16T03:47:55;16.30;99.90
54431;DHT22;40342;52.998;5.862;2023-07-16T03:50:21;16.30;99.90
54431;DHT22;40342;52.998;5.862;2023-07-16T03:52:47;16.30;99.90
54431;DHT22;40342;52.998;5.862;2023-07-16T03:55:12;16.40;99.90
54431;DHT22;40342;52.998;5.862;2023-07-16T03:57:38;16.40;99.90
54431;DHT22;40342;52.998;5.862;2023-07-16T04:00:04;16.40;99.90
54431;DHT22;40342;52.998;5.862;2023-07-16T04:02:32;16.40;99.90
54431;DHT22;40342;52.998;5.862;2023-07-16T04:04:58;16.40;99.90
54431;DHT22;40342;52.998;5.862;2023-07-16T04:07:23;16.40;99.90
54431;DHT22;40342;52.998;5.862;2023-07-16T04:09:49;16.40;99.90
54431;DHT22;40342;52.998;5.862;2023-07-16T04:12:14;16.50;99.90
54431;DHT22;40342;52.998;5.862;2023-07-16T04:14:40;16.50;99.90
54431;DHT22;40342;52.998;5.862;2023-07-16T04:17:05;16.50;99.90
54431;DHT22;40342;52.998;5.862;2023-07-16T04:19:31;16.50;99.90
54431;DHT22;40342;52.998;5.862;2023-07-16T04:21:57;16.50;99.90
54431;DHT22;40342;52.998;5.862;2023-07-16T04:24:22;16.50;99.90
54431;DHT22;40342;52.998;5.862;2023-07-16T04:26:49;16.50;99.90
54431;DHT22;40342;52.998;5.862;2023-07-16T04:29:14;16.60;99.90
54431;DHT22;40342;52.998;5.862;2023-07-16T04:31:41;16.60;99.90
54431;DHT22;40342;52.998;5.862;2023-07-16T04:34:06;16.60;99.90
54431;DHT22;40342;52.998;5.862;2023-07-16T04:36:32;16.60;99.90
54431;DHT22;40342;52.998;5.862;2023-07-16T04:38:57;16.70;99.90
54431;DHT22;40342;52.998;5.862;2023-07-16T04:41:23;16.70;99.90
54431;DHT22;40342;52.998;5.862;2023-07-16T04:43:48;16.80;99.90
54431;DHT22;40342;52.998;5.862;2023-07-16T04:46:14;16.90;99.90
54431;DHT22;40342;52.998;5.862;2023-07-16T04:48:41;16.90;99.90
54431;DHT22;40342;52.998;5.862;2023-07-16T04:51:07;17.00;99.90
54431;DHT22;40342;52.998;5.862;2023-07-16T04:53:33;17.00;99.90
54431;DHT22;40342;52.998;5.862;2023-07-16T04:55:58;16.90;99.90
54431;DHT22;40342;52.998;5.862;2023-07-16T04:58:24;17.00;99.90
54431;DHT22;40342;52.998;5.862;2023-07-16T05:00:49;16.90;99.90
54431;DHT22;40342;52.998;5.862;2023-07-16T05:03:15;16.90;99.90
54431;DHT22;40342;52.998;5.862;2023-07-16T05:05:40;16.80;99.90
54431;DHT22;40342;52.998;5.862;2023-07-16T05:08:06;16.70;99.90
54431;DHT22;40342;52.998;5.862;2023-07-16T05:10:33;16.60;99.90
54431;DHT22;40342;52.998;5.862;2023-07-16T05:12:58;16.60;99.90
54431;DHT22;40342;52.998;5.862;2023-07-16T05:15:24;16.50;99.90
54431;DHT22;40342;52.998;5.862;2023-07-16T05:17:49;16.40;99.90
54431;DHT22;40342;52.998;5.862;2023-07-16T05:20:15;16.40;99.90
54431;DHT22;40342;52.998;5.862;2023-07-16T05:22:41;16.40;99.90
54431;DHT22;40342;52.998;5.862;2023-07-16T05:25:06;16.40;99.90
54431;DHT22;40342;52.998;5.862;2023-07-16T05:27:32;16.40;99.90
54431;DHT22;40342;52.998;5.862;2023-07-16T05:29:58;16.40;99.90
54431;DHT22;40342;52.998;5.862;2023-07-16T05:32:23;16.40;99.90
54431;DHT22;40342;52.998;5.862;2023-07-16T05:34:49;16.40;99.90
54431;DHT22;40342;52.998;5.862;2023-07-16T05:37:14;16.50;99.90
54431;DHT22;40342;52.998;5.862;2023-07-16T05:39:40;16.50;99.90
54431;DHT22;40342;52.998;5.862;2023-07-16T05:42:05;16.50;99.90
54431;DHT22;40342;52.998;5.862;2023-07-16T05:44:31;16.50;99.90
54431;DHT22;40342;52.998;5.862;2023-07-16T05:46:57;16.50;99.90
54431;DHT22;40342;52.998;5.862;2023-07-16T05:49:24;16.50;99.90
54431;DHT22;40342;52.998;5.862;2023-07-16T05:51:51;16.50;99.90
54431;DHT22;40342;52.998;5.862;2023-07-16T05:54:16;16.40;99.90
54431;DHT22;40342;52.998;5.862;2023-07-16T05:56:42;16.40;99.90
54431;DHT22;40342;52.998;5.862;2023-07-16T05:59:07;16.40;99.90
54431;DHT22;40342;52.998;5.862;2023-07-16T06:01:33;16.40;99.90
54431;DHT22;40342;52.998;5.862;2023-07-16T06:03:59;16.40;99.90
54431;DHT22;40342;52.998;5.862;2023-07-16T06:06:26;16.40;99.90
54431;DHT22;40342;52.998;5.862;2023-07-16T06:08:51;16.40;99.90
54431;DHT22;40342;52.998;5.862;2023-07-16T06:11:17;16.40;99.90
54431;DHT22;40342;52.998;5.862;2023-07-16T06:13:42;16.40;99.90
54431;DHT22;40342;52.998;5.862;2023-07-16T06:16:08;16.50;99.90
54431;DHT22;40342;52.998;5.862;2023-07-16T06:18:34;16.50;99.90
54431;DHT22;40342;52.998;5.862;2023-07-16T06:20:59;16.50;99.90
54431;DHT22;40342;52.998;5.862;2023-07-16T06:23:25;16.50;99.90
54431;DHT22;40342;52.998;5.862;2023-07-16T06:25:56;16.50;99.90
54431;DHT22;40342;52.998;5.862;2023-07-16T06:28:22;16.60;99.90
54431;DHT22;40342;52.998;5.862;2023-07-16T06:30:49;16.60;99.90
54431;DHT22;40342;52.998;5.862;2023-07-16T06:33:16;16.60;99.90
54431;DHT22;40342;52.998;5.862;2023-07-16T06:35:44;16.60;99.90
54431;DHT22;40342;52.998;5.862;2023-07-16T06:38:11;16.60;99.90
54431;DHT22;40342;52.998;5.862;2023-07-16T06:40:36;16.70;99.90
54431;DHT22;40342;52.998;5.862;2023-07-16T06:43:02;16.80;99.90
54431;DHT22;40342;52.998;5.862;2023-07-16T06:45:27;16.80;99.90
54431;DHT22;40342;52.998;5.862;2023-07-16T06:47:53;16.90;99.90
54431;DHT22;40342;52.998;5.862;2023-07-16T06:50:18;17.00;99.90
54431;DHT22;40342;52.998;5.862;2023-07-16T06:52:44;17.10;99.90
54431;DHT22;40342;52.998;5.862;2023-07-16T06:55:09;17.10;99.90
54431;DHT22;40342;52.998;5.862;2023-07-16T06:57:35;17.10;99.90
54431;DHT22;40342;52.998;5.862;2023-07-16T07:00:01;17.00;99.90
54431;DHT22;40342;52.998;5.862;2023-07-16T07:02:26;17.00;99.90
54431;DHT22;40342;52.998;5.862;2023-07-16T07:04:52;17.10;99.90
54431;DHT22;40342;52.998;5.862;2023-07-16T07:07:17;17.10;99.90
54431;DHT22;40342;52.998;5.862;2023-07-16T07:09:46;17.10;99.90
54431;DHT22;40342;52.998;5.862;2023-07-16T07:12:12;17.20;99.90
54431;DHT22;40342;52.998;5.862;2023-07-16T07:14:37;17.20;99.90
54431;DHT22;40342;52.998;5.862;2023-07-16T07:17:03;17.20;99.90
54431;DHT22;40342;52.998;5.862;2023-07-16T07:19:29;17.10;99.90
54431;DHT22;40342;52.998;5.862;2023-07-16T07:21:54;17.10;99.90
54431;DHT22;40342;52.998;5.862;2023-07-16T07:24:20;17.10;99.90
54431;DHT22;40342;52.998;5.862;2023-07-16T07:26:46;17.00;99.90
54431;DHT22;40342;52.998;5.862;2023-07-16T07:29:11;17.00;99.90
54431;DHT22;40342;52.998;5.862;2023-07-16T07:31:37;17.00;99.90
54431;DHT22;40342;52.998;5.862;2023-07-16T07:34:02;17.00;99.90
54431;DHT22;40342;52.998;5.862;2023-07-16T07:36:28;17.00;99.90
54431;DHT22;40342;52.998;5.862;2023-07-16T07:38:54;17.00;99.90
54431;DHT22;40342;52.998;5.862;2023-07-16T07:41:20;17.00;99.90
54431;DHT22;40342;52.998;5.862;2023-07-16T07:43:45;17.00;99.90
54431;DHT22;40342;52.998;5.862;2023-07-16T07:46:11;16.90;99.90
54431;DHT22;40342;52.998;5.862;2023-07-16T07:48:37;16.80;99.90
54431;DHT22;40342;52.998;5.862;2023-07-16T07:51:02;16.70;99.90
54431;DHT22;40342;52.998;5.862;2023-07-16T07:53:28;16.60;99.90
54431;DHT22;40342;52.998;5.862;2023-07-16T07:55:54;16.60;99.90
54431;DHT22;40342;52.998;5.862;2023-07-16T07:58:19;16.60;99.90
54431;DHT22;40342;52.998;5.862;2023-07-16T08:00:45;16.50;99.90
54431;DHT22;40342;52.998;5.862;2023-07-16T08:03:11;16.40;99.90
54431;DHT22;40342;52.998;5.862;2023-07-16T08:05:36;16.40;99.90
54431;DHT22;40342;52.998;5.862;2023-07-16T08:08:02;16.50;99.90
54431;DHT22;40342;52.998;5.862;2023-07-16T08:10:27;16.50;99.90
54431;DHT22;40342;52.998;5.862;2023-07-16T08:12:53;16.60;99.90
54431;DHT22;40342;52.998;5.862;2023-07-16T08:15:18;16.60;99.90
54431;DHT22;40342;52.998;5.862;2023-07-16T08:17:45;16.70;99.90
54431;DHT22;40342;52.998;5.862;2023-07-16T08:20:11;16.70;99.90
54431;DHT22;40342;52.998;5.862;2023-07-16T08:22:37;16.70;99.90
54431;DHT22;40342;52.998;5.862;2023-07-16T08:25:04;16.80;99.90
54431;DHT22;40342;52.998;5.862;2023-07-16T08:27:30;16.90;99.90
54431;DHT22;40342;52.998;5.862;2023-07-16T08:29:56;17.00;99.90
54431;DHT22;40342;52.998;5.862;2023-07-16T08:32:22;17.10;99.90
54431;DHT22;40342;52.998;5.862;2023-07-16T08:34:47;17.30;99.90
54431;DHT22;40342;52.998;5.862;2023-07-16T08:37:14;17.50;99.90
54431;DHT22;40342;52.998;5.862;2023-07-16T08:39:39;17.60;99.90
54431;DHT22;40342;52.998;5.862;2023-07-16T08:42:05;17.70;99.90
54431;DHT22;40342;52.998;5.862;2023-07-16T08:44:31;17.70;99.90
54431;DHT22;40342;52.998;5.862;2023-07-16T08:46:57;17.80;99.90
54431;DHT22;40342;52.998;5.862;2023-07-16T08:49:23;17.70;99.90
54431;DHT22;40342;52.998;5.862;2023-07-16T08:51:52;17.60;99.90
54431;DHT22;40342;52.998;5.862;2023-07-16T08:54:19;17.40;99.90
54431;DHT22;40342;52.998;5.862;2023-07-16T08:56:45;17.50;99.90
54431;DHT22;40342;52.998;5.862;2023-07-16T08:59:14;17.70;99.90
54431;DHT22;40342;52.998;5.862;2023-07-16T09:01:39;17.90;99.90
54431;DHT22;40342;52.998;5.862;2023-07-16T09:04:05;18.00;99.90
54431;DHT22;40342;52.998;5.862;2023-07-16T09:06:30;18.10;99.90
54431;DHT22;40342;52.998;5.862;2023-07-16T09:08:56;18.00;99.90
54431;DHT22;40342;52.998;5.862;2023-07-16T09:11:22;18.00;99.90
54431;DHT22;40342;52.998;5.862;2023-07-16T09:13:50;17.90;99.90
54431;DHT22;40342;52.998;5.862;2023-07-16T09:16:18;17.90;99.90
54431;DHT22;40342;52.998;5.862;2023-07-16T09:18:44;18.00;99.90
54431;DHT22;40342;52.998;5.862;2023-07-16T09:21:10;18.00;99.90
54431;DHT22;40342;52.998;5.862;2023-07-16T09:23:36;18.00;99.90
54431;DHT22;40342;52.998;5.862;2023-07-16T09:26:03;18.20;99.90
54431;DHT22;40342;52.998;5.862;2023-07-16T09:28:30;18.40;99.90
54431;DHT22;40342;52.998;5.862;2023-07-16T09:31:02;18.80;99.90
54431;DHT22;40342;52.998;5.862;2023-07-16T09:33:28;18.90;99.90
54431;DHT22;40342;52.998;5.862;2023-07-16T09:35:54;19.00;99.90
54431;DHT22;40342;52.998;5.862;2023-07-16T09:38:20;18.90;99.90
54431;DHT22;40342;52.998;5.862;2023-07-16T09:40:46;18.70;99.90
54431;DHT22;40342;52.998;5.862;2023-07-16T09:43:12;18.60;99.90
54431;DHT22;40342;52.998;5.862;2023-07-16T09:45:39;18.50;99.90
54431;DHT22;40342;52.998;5.862;2023-07-16T09:48:05;18.50;99.90
54431;DHT22;40342;52.998;5.862;2023-07-16T09:50:35;18.50;99.90
54431;DHT22;40342;52.998;5.862;2023-07-16T09:53:01;18.70;99.90
54431;DHT22;40342;52.998;5.862;2023-07-16T09:55:31;18.90;99.90
54431;DHT22;40342;52.998;5.862;2023-07-16T09:57:58;18.90;99.90
54431;DHT22;40342;52.998;5.862;2023-07-16T10:00:25;18.80;99.90
54431;DHT22;40342;52.998;5.862;2023-07-16T10:02:52;18.80;99.90
54431;DHT22;40342;52.998;5.862;2023-07-16T10:05:19;18.80;99.90
54431;DHT22;40342;52.998;5.862;2023-07-16T10:07:53;18.80;99.90
54431;DHT22;40342;52.998;5.862;2023-07-16T10:10:20;18.80;99.90
54431;DHT22;40342;52.998;5.862;2023-07-16T10:12:58;18.80;99.90
54431;DHT22;40342;52.998;5.862;2023-07-16T10:15:27;19.00;99.90
54431;DHT22;40342;52.998;5.862;2023-07-16T10:17:53;19.20;99.90
54431;DHT22;40342;52.998;5.862;2023-07-16T10:20:36;19.30;99.90
54431;DHT22;40342;52.998;5.862;2023-07-16T10:23:15;19.40;99.90
54431;DHT22;40342;52.998;5.862;2023-07-16T10:26:01;19.50;99.90
54431;DHT22;40342;52.998;5.862;2023-07-16T10:28:27;19.40;99.90
54431;DHT22;40342;52.998;5.862;2023-07-16T10:30:52;19.40;99.90
54431;DHT22;40342;52.998;5.862;2023-07-16T10:33:18;19.50;99.90
54431;DHT22;40342;52.998;5.862;2023-07-16T10:35:45;19.50;99.90
54431;DHT22;40342;52.998;5.862;2023-07-16T10:38:11;19.40;99.90
54431;DHT22;40342;52.998;5.862;2023-07-16T10:40:41;19.40;99.90
54431;DHT22;40342;52.998;5.862;2023-07-16T10:43:08;19.30;99.90
54431;DHT22;40342;52.998;5.862;2023-07-16T10:45:33;19.30;99.90
54431;DHT22;40342;52.998;5.862;2023-07-16T10:47:59;19.20;99.90
54431;DHT22;40342;52.998;5.862;2023-07-16T10:50:24;19.00;99.90
54431;DHT22;40342;52.998;5.862;2023-07-16T10:52:56;19.00;99.90
54431;DHT22;40342;52.998;5.862;2023-07-16T10:55:23;18.80;99.90
54431;DHT22;40342;52.998;5.862;2023-07-16T10:57:50;18.70;99.90
54431;DHT22;40342;52.998;5.862;2023-07-16T11:00:17;18.70;99.90
54431;DHT22;40342;52.998;5.862;2023-07-16T11:02:44;18.70;99.90
54431;DHT22;40342;52.998;5.862;2023-07-16T11:05:10;18.80;99.90
54431;DHT22;40342;52.998;5.862;2023-07-16T11:07:37;18.80;99.90
54431;DHT22;40342;52.998;5.862;2023-07-16T11:10:02;18.90;99.90
54431;DHT22;40342;52.998;5.862;2023-07-16T11:12:28;19.20;99.90
54431;DHT22;40342;52.998;5.862;2023-07-16T11:14:55;19.50;99.90
54431;DHT22;40342;52.998;5.862;2023-07-16T11:17:23;19.70;99.90
54431;DHT22;40342;52.998;5.862;2023-07-16T11:19:51;20.00;99.90
54431;DHT22;40342;52.998;5.862;2023-07-16T11:22:17;20.00;99.90
54431;DHT22;40342;52.998;5.862;2023-07-16T11:24:47;20.00;99.90
54431;DHT22;40342;52.998;5.862;2023-07-16T11:27:18;20.10;99.90
54431;DHT22;40342;52.998;5.862;2023-07-16T11:29:47;20.30;99.90
54431;DHT22;40342;52.998;5.862;2023-07-16T11:32:25;20.60;99.90
54431;DHT22;40342;52.998;5.862;2023-07-16T11:34:52;20.80;99.90
54431;DHT22;40342;52.998;5.862;2023-07-16T11:37:19;20.90;99.90
54431;DHT22;40342;52.998;5.862;2023-07-16T11:39:46;21.00;99.90
54431;DHT22;40342;52.998;5.862;2023-07-16T11:42:12;21.10;99.90
54431;DHT22;40342;52.998;5.862;2023-07-16T11:44:38;21.20;99.90
54431;DHT22;40342;52.998;5.862;2023-07-16T11:47:04;21.10;99.90
54431;DHT22;40342;52.998;5.862;2023-07-16T11:49:29;21.10;99.90
54431;DHT22;40342;52.998;5.862;2023-07-16T11:51:56;21.30;99.90
54431;DHT22;40342;52.998;5.862;2023-07-16T11:54:22;21.30;99.90
54431;DHT22;40342;52.998;5.862;2023-07-16T11:56:48;21.10;99.90
54431;DHT22;40342;52.998;5.862;2023-07-16T11:59:15;20.80;99.90
54431;DHT22;40342;52.998;5.862;2023-07-16T12:01:41;20.50;99.90
54431;DHT22;40342;52.998;5.862;2023-07-16T12:04:07;20.30;99.90
54431;DHT22;40342;52.998;5.862;2023-07-16T12:06:33;20.00;99.90
54431;DHT22;40342;52.998;5.862;2023-07-16T12:08:59;19.90;99.90
54431;DHT22;40342;52.998;5.862;2023-07-16T12:11:24;19.80;99.90
54431;DHT22;40342;52.998;5.862;2023-07-16T12:13:50;19.90;99.90
54431;DHT22;40342;52.998;5.862;2023-07-16T12:16:15;20.00;99.90
54431;DHT22;40342;52.998;5.862;2023-07-16T12:18:41;19.90;99.90
54431;DHT22;40342;52.998;5.862;2023-07-16T12:21:06;19.90;99.90
54431;DHT22;40342;52.998;5.862;2023-07-16T12:23:32;19.80;99.90
54431;DHT22;40342;52.998;5.862;2023-07-16T12:25:57;19.70;99.90
54431;DHT22;40342;52.998;5.862;2023-07-16T12:28:23;19.60;99.90
54431;DHT22;40342;52.998;5.862;2023-07-16T12:30:48;19.40;99.90
54431;DHT22;40342;52.998;5.862;2023-07-16T12:33:14;19.30;99.90
54431;DHT22;40342;52.998;5.862;2023-07-16T12:35:40;19.50;99.90
54431;DHT22;40342;52.998;5.862;2023-07-16T12:38:05;19.80;99.90
54431;DHT22;40342;52.998;5.862;2023-07-16T12:40:31;20.10;99.90
54431;DHT22;40342;52.998;5.862;2023-07-16T12:42:57;20.60;99.90
54431;DHT22;40342;52.998;5.862;2023-07-16T12:45:22;20.00;99.90
54431;DHT22;40342;52.998;5.862;2023-07-16T12:47:48;19.90;99.90
54431;DHT22;40342;52.998;5.862;2023-07-16T12:50:13;19.90;99.90
54431;DHT22;40342;52.998;5.862;2023-07-16T12:52:39;20.00;99.90
54431;DHT22;40342;52.998;5.862;2023-07-16T12:55:05;19.90;99.90
54431;DHT22;40342;52.998;5.862;2023-07-16T12:57:30;19.90;99.90
54431;DHT22;40342;52.998;5.862;2023-07-16T12:59:57;20.00;99.90
54431;DHT22;40342;52.998;5.862;2023-07-16T13:02:23;20.10;99.90
54431;DHT22;40342;52.998;5.862;2023-07-16T13:04:48;20.10;99.90
54431;DHT22;40342;52.998;5.862;2023-07-16T13:07:14;20.00;99.90
54431;DHT22;40342;52.998;5.862;2023-07-16T13:09:39;20.00;99.90
54431;DHT22;40342;52.998;5.862;2023-07-16T13:12:05;19.90;99.90
54431;DHT22;40342;52.998;5.862;2023-07-16T13:14:31;20.00;99.90
54431;DHT22;40342;52.998;5.862;2023-07-16T13:16:57;20.00;99.90
54431;DHT22;40342;52.998;5.862;2023-07-16T13:19:22;20.20;99.90
54431;DHT22;40342;52.998;5.862;2023-07-16T13:21:48;20.10;99.90
54431;DHT22;40342;52.998;5.862;2023-07-16T13:24:13;20.00;99.90
54431;DHT22;40342;52.998;5.862;2023-07-16T13:26:39;20.00;99.90
54431;DHT22;40342;52.998;5.862;2023-07-16T13:29:04;20.00;99.90
54431;DHT22;40342;52.998;5.862;2023-07-16T13:31:30;20.00;99.90
54431;DHT22;40342;52.998;5.862;2023-07-16T13:33:56;20.00;99.90
54431;DHT22;40342;52.998;5.862;2023-07-16T13:36:21;20.20;99.90
54431;DHT22;40342;52.998;5.862;2023-07-16T13:38:47;20.40;99.90
54431;DHT22;40342;52.998;5.862;2023-07-16T13:41:12;20.60;99.90
54431;DHT22;40342;52.998;5.862;2023-07-16T13:43:38;20.50;99.90
54431;DHT22;40342;52.998;5.862;2023-07-16T13:46:03;20.60;99.90
54431;DHT22;40342;52.998;5.862;2023-07-16T13:48:29;20.50;99.90
54431;DHT22;40342;52.998;5.862;2023-07-16T13:50:55;20.60;99.90
54431;DHT22;40342;52.998;5.862;2023-07-16T13:53:20;20.70;99.90
54431;DHT22;40342;52.998;5.862;2023-07-16T13:55:46;20.60;99.90
54431;DHT22;40342;52.998;5.862;2023-07-16T13:58:11;20.60;99.90
54431;DHT22;40342;52.998;5.862;2023-07-16T14:00:37;20.60;99.90
54431;DHT22;40342;52.998;5.862;2023-07-16T14:03:03;20.80;99.90
54431;DHT22;40342;52.998;5.862;2023-07-16T14:05:28;20.80;99.90
54431;DHT22;40342;52.998;5.862;2023-07-16T14:07:54;20.80;99.90
54431;DHT22;40342;52.998;5.862;2023-07-16T14:10:19;20.70;99.90
54431;DHT22;40342;52.998;5.862;2023-07-16T14:12:45;20.60;99.90
54431;DHT22;40342;52.998;5.862;2023-07-16T14:15:11;20.50;99.90
54431;DHT22;40342;52.998;5.862;2023-07-16T14:17:36;20.40;99.90
54431;DHT22;40342;52.998;5.862;2023-07-16T14:20:02;20.30;99.90
54431;DHT22;40342;52.998;5.862;2023-07-16T14:22:29;20.30;99.90
54431;DHT22;40342;52.998;5.862;2023-07-16T14:24:54;20.40;99.90
54431;DHT22;40342;52.998;5.862;2023-07-16T14:27:20;20.40;99.90
54431;DHT22;40342;52.998;5.862;2023-07-16T14:29:46;20.40;99.90
54431;DHT22;40342;52.998;5.862;2023-07-16T14:32:12;20.50;99.90
54431;DHT22;40342;52.998;5.862;2023-07-16T14:34:38;20.60;99.90
54431;DHT22;40342;52.998;5.862;2023-07-16T14:37:04;20.80;99.90
54431;DHT22;40342;52.998;5.862;2023-07-16T14:39:29;20.80;99.90
54431;DHT22;40342;52.998;5.862;2023-07-16T14:41:55;20.80;99.90
54431;DHT22;40342;52.998;5.862;2023-07-16T14:44:20;20.80;99.90
54431;DHT22;40342;52.998;5.862;2023-07-16T14:46:46;21.50;99.90
54431;DHT22;40342;52.998;5.862;2023-07-16T14:49:12;21.00;99.90
54431;DHT22;40342;52.998;5.862;2023-07-16T14:51:37;21.00;99.90
54431;DHT22;40342;52.998;5.862;2023-07-16T14:54:08;21.00;99.90
54431;DHT22;40342;52.998;5.862;2023-07-16T14:56:34;20.90;99.90
54431;DHT22;40342;52.998;5.862;2023-07-16T14:59:00;20.90;99.90
54431;DHT22;40342;52.998;5.862;2023-07-16T15:01:25;20.80;99.90
54431;DHT22;40342;52.998;5.862;2023-07-16T15:03:51;20.70;99.90
54431;DHT22;40342;52.998;5.862;2023-07-16T15:06:16;20.60;99.90
54431;DHT22;40342;52.998;5.862;2023-07-16T15:08:42;20.50;99.90
54431;DHT22;40342;52.998;5.862;2023-07-16T15:11:07;20.50;99.90
54431;DHT22;40342;52.998;5.862;2023-07-16T15:13:33;20.50;99.90
54431;DHT22;40342;52.998;5.862;2023-07-16T15:15:58;20.50;99.90
54431;DHT22;40342;52.998;5.862;2023-07-16T15:18:25;20.50;99.90
54431;DHT22;40342;52.998;5.862;2023-07-16T15:20:59;20.60;99.90
54431;DHT22;40342;52.998;5.862;2023-07-16T15:23:25;20.60;99.90
54431;DHT22;40342;52.998;5.862;2023-07-16T15:25:52;20.60;99.90
54431;DHT22;40342;52.998;5.862;2023-07-16T15:28:17;20.60;99.90
54431;DHT22;40342;52.998;5.862;2023-07-16T15:30:43;20.60;99.90